Notice: Radar data is about one hour behind.
Radar is unstable, so pay attention to the date and time in the image


Latest  Newer  Older  Last 2 hours animation  Current image  Latest image  Summary per 24h (testing)  Summary per 7d (testing) 
Cloud coverage sat images  Infrared sat images 
Real-time lightning map

All time is UTC (add 2 hours in wintertime, 3 hours in DST for Latvia local time)

2019/09/22 01:50 EVRA 220150Z 28006KT 240V330 9999 SCT043 13/11 Q1012 NOSIG
2019/09/22 01:50 EVLA 220150Z AUTO 00000KT 0400 R24/0550N R06/0500N FG SCT004/// 07/07 Q1015
2019/09/22 01:50 EVVA 220150Z AUTO 29007KT CAVOK 15/12 Q1013
2019/09/22 01:50 EYKA 220150Z 27009KT 9999 OVC005 12/11 Q1015
2019/09/22 01:50 EYPA 220150Z AUTO VRB02KT 9999 OVC009/// 14/13 Q1016
2019/09/22 01:50 EYSA 220150Z 25012KT 9999 FEW003 SCT062 10/09 Q1015 BLU TEMPO SCT003 OVC050 YLO2
2019/09/22 01:50 EYVI 220150Z VRB07KT 9999 FEW007 10/09 Q1015 NOSIG
2019/09/21 07:50 EEKA 210750Z 30007KT 250V350 9999 SCT023 OVC037 14/10 Q1009
2019/09/22 01:50 EEKE 220150Z AUTO 34007KT 280V010 9999NDV FEW020 SCT051 13/10 Q1013
2019/09/21 12:50 EEPU 211250Z 29013G23KT 9999 BKN021 OVC043 15/11 Q1008
2019/09/22 01:50 EETN 220150Z 35007KT 310V030 9999 FEW025 08/03 Q1011
2019/09/22 01:50 EETU 220150Z AUTO 29006KT 260V330 9999 FEW013/// SCT019/// BKN044/// 08/07 Q1009
   RIGA AIRPORT     EVRA               56 55N  023 58E   10   X     T          6 LV
   LIEPAJA INTL     EVLA        26406  56 31N  021 06E    4   X                8 LV
   VENTPILS         EVVA               57 21N  021 33E    6   X                8 LV
   KAUNAS           EYKA               54 54N  023 55E   77   X     T          6 LT
   PALANGA INTL     EYPA               55 55N  021 03E   10   X                6 LT
   SIAULIAI INTL    EYSA               55 54N  023 24E  135   X     T          6 LT
   VILNIUS INTL     EYVI        26730  54 38N  025 17E  197   X     T          6 LT
   KARDLA           EEKA        26116  58 59N  022 50E    4   X                8 EE
   KURESSAARE       EEKE               58 14N  022 31E    4   X                8 EE
   PARNU            EEPU               58 25N  024 28E   14   X                8 EE
   TALLINN          EETN        26038  59 24N  024 49E   40   X     T          8 EE
   TARTU            EETU               58 19N  026 41E   67   X                8 EE

rain/snow radar image from www.meteo.lv and METAR data from weather.noaa.gov